sensor_id;sensor_type;location;lat;lon;timestamp;pressure;altitude;pressure_sealevel;temperature;humidity
71907;BME280;59781;52.090;5.030;2023-04-26T00:00:47;101915.75;;;3.42;100.00
71907;BME280;59781;52.090;5.030;2023-04-26T00:03:13;101920.81;;;3.32;100.00
71907;BME280;59781;52.090;5.030;2023-04-26T00:05:39;101919.88;;;3.33;100.00
71907;BME280;59781;52.090;5.030;2023-04-26T00:08:05;101918.41;;;3.42;100.00
71907;BME280;59781;52.090;5.030;2023-04-26T00:10:31;101927.00;;;3.33;100.00
71907;BME280;59781;52.090;5.030;2023-04-26T00:12:56;101927.31;;;3.28;100.00
71907;BME280;59781;52.090;5.030;2023-04-26T00:15:22;101929.91;;;3.15;100.00
71907;BME280;59781;52.090;5.030;2023-04-26T00:17:48;101932.91;;;3.24;100.00
71907;BME280;59781;52.090;5.030;2023-04-26T00:20:15;101931.44;;;3.05;100.00
71907;BME280;59781;52.090;5.030;2023-04-26T00:22:40;101920.28;;;2.99;100.00
71907;BME280;59781;52.090;5.030;2023-04-26T00:25:07;101925.59;;;3.13;100.00
71907;BME280;59781;52.090;5.030;2023-04-26T00:27:33;101931.91;;;2.98;100.00
71907;BME280;59781;52.090;5.030;2023-04-26T00:29:59;101930.00;;;2.85;100.00
71907;BME280;59781;52.090;5.030;2023-04-26T00:32:24;101922.38;;;2.94;100.00
71907;BME280;59781;52.090;5.030;2023-04-26T00:34:50;101924.38;;;2.90;100.00
71907;BME280;59781;52.090;5.030;2023-04-26T00:37:16;101920.97;;;2.88;100.00
71907;BME280;59781;52.090;5.030;2023-04-26T00:39:42;101927.06;;;2.76;100.00
71907;BME280;59781;52.090;5.030;2023-04-26T00:42:07;101929.03;;;2.72;100.00
71907;BME280;59781;52.090;5.030;2023-04-26T00:44:33;101933.19;;;2.62;100.00
71907;BME280;59781;52.090;5.030;2023-04-26T00:46:59;101934.06;;;2.63;100.00
71907;BME280;59781;52.090;5.030;2023-04-26T00:49:25;101930.28;;;2.67;100.00
71907;BME280;59781;52.090;5.030;2023-04-26T00:51:52;101931.09;;;2.53;100.00
71907;BME280;59781;52.090;5.030;2023-04-26T00:54:19;101932.25;;;2.49;100.00
71907;BME280;59781;52.090;5.030;2023-04-26T00:56:46;101934.13;;;2.47;100.00
71907;BME280;59781;52.090;5.030;2023-04-26T00:59:12;101927.03;;;2.47;100.00
71907;BME280;59781;52.090;5.030;2023-04-26T01:04:17;101924.22;;;2.35;100.00
71907;BME280;59781;52.090;5.030;2023-04-26T01:06:43;101923.41;;;2.48;100.00
71907;BME280;59781;52.090;5.030;2023-04-26T01:09:10;101916.34;;;2.33;100.00
71907;BME280;59781;52.090;5.030;2023-04-26T01:11:39;101915.78;;;2.42;100.00
71907;BME280;59781;52.090;5.030;2023-04-26T01:14:08;101916.09;;;2.52;100.00
71907;BME280;59781;52.090;5.030;2023-04-26T01:16:36;101923.88;;;2.55;100.00
71907;BME280;59781;52.090;5.030;2023-04-26T01:19:10;101922.94;;;2.56;100.00
71907;BME280;59781;52.090;5.030;2023-04-26T01:21:38;101924.66;;;2.57;100.00
71907;BME280;59781;52.090;5.030;2023-04-26T01:24:05;101922.38;;;2.65;100.00
71907;BME280;59781;52.090;5.030;2023-04-26T01:26:33;101931.28;;;2.64;100.00
71907;BME280;59781;52.090;5.030;2023-04-26T01:28:59;101934.25;;;2.59;100.00
71907;BME280;59781;52.090;5.030;2023-04-26T01:31:26;101924.56;;;2.58;100.00
71907;BME280;59781;52.090;5.030;2023-04-26T01:33:51;101925.69;;;2.54;100.00
71907;BME280;59781;52.090;5.030;2023-04-26T01:36:18;101920.06;;;2.45;100.00
71907;BME280;59781;52.090;5.030;2023-04-26T01:38:43;101926.06;;;2.48;100.00
71907;BME280;59781;52.090;5.030;2023-04-26T01:41:09;101926.81;;;2.50;100.00
71907;BME280;59781;52.090;5.030;2023-04-26T01:43:35;101926.06;;;2.48;100.00
71907;BME280;59781;52.090;5.030;2023-04-26T01:46:01;101922.91;;;2.42;100.00
71907;BME280;59781;52.090;5.030;2023-04-26T01:48:29;101921.50;;;2.36;100.00
71907;BME280;59781;52.090;5.030;2023-04-26T01:50:55;101917.69;;;2.40;100.00
71907;BME280;59781;52.090;5.030;2023-04-26T01:53:21;101914.75;;;2.45;100.00
71907;BME280;59781;52.090;5.030;2023-04-26T01:55:46;101915.44;;;2.48;100.00
71907;BME280;59781;52.090;5.030;2023-04-26T01:58:12;101920.44;;;2.39;100.00
71907;BME280;59781;52.090;5.030;2023-04-26T02:00:38;101915.22;;;2.37;100.00
71907;BME280;59781;52.090;5.030;2023-04-26T02:03:04;101917.41;;;2.45;100.00
71907;BME280;59781;52.090;5.030;2023-04-26T02:05:29;101914.19;;;2.54;100.00
71907;BME280;59781;52.090;5.030;2023-04-26T02:07:55;101917.34;;;2.75;100.00
71907;BME280;59781;52.090;5.030;2023-04-26T02:10:21;101924.81;;;2.54;100.00
71907;BME280;59781;52.090;5.030;2023-04-26T02:12:46;101920.59;;;2.36;100.00
71907;BME280;59781;52.090;5.030;2023-04-26T02:15:12;101923.56;;;2.31;100.00
71907;BME280;59781;52.090;5.030;2023-04-26T02:17:39;101913.88;;;2.30;100.00
71907;BME280;59781;52.090;5.030;2023-04-26T02:20:05;101918.34;;;2.29;100.00
71907;BME280;59781;52.090;5.030;2023-04-26T02:22:34;101913.28;;;2.25;100.00
71907;BME280;59781;52.090;5.030;2023-04-26T02:25:00;101914.22;;;2.24;100.00
71907;BME280;59781;52.090;5.030;2023-04-26T02:27:26;101912.81;;;2.18;100.00
71907;BME280;59781;52.090;5.030;2023-04-26T02:29:53;101915.38;;;2.34;100.00
71907;BME280;59781;52.090;5.030;2023-04-26T02:32:19;101916.84;;;2.10;100.00
71907;BME280;59781;52.090;5.030;2023-04-26T02:34:45;101920.41;;;2.24;100.00
71907;BME280;59781;52.090;5.030;2023-04-26T02:37:11;101909.84;;;2.23;100.00
71907;BME280;59781;52.090;5.030;2023-04-26T02:39:37;101913.59;;;2.05;100.00
71907;BME280;59781;52.090;5.030;2023-04-26T02:42:02;101916.44;;;2.01;100.00
71907;BME280;59781;52.090;5.030;2023-04-26T02:44:29;101913.44;;;2.08;100.00
71907;BME280;59781;52.090;5.030;2023-04-26T02:46:56;101916.63;;;1.98;100.00
71907;BME280;59781;52.090;5.030;2023-04-26T02:49:22;101912.53;;;1.93;100.00
71907;BME280;59781;52.090;5.030;2023-04-26T02:51:48;101916.13;;;1.92;100.00
71907;BME280;59781;52.090;5.030;2023-04-26T02:54:14;101904.41;;;1.80;100.00
71907;BME280;59781;52.090;5.030;2023-04-26T02:56:40;101907.41;;;1.74;100.00
71907;BME280;59781;52.090;5.030;2023-04-26T02:59:06;101908.97;;;1.78;100.00
71907;BME280;59781;52.090;5.030;2023-04-26T03:01:32;101911.72;;;2.07;100.00
71907;BME280;59781;52.090;5.030;2023-04-26T03:03:58;101910.72;;;1.93;100.00
71907;BME280;59781;52.090;5.030;2023-04-26T03:06:23;101901.00;;;1.78;100.00
71907;BME280;59781;52.090;5.030;2023-04-26T03:08:49;101906.56;;;2.04;100.00
71907;BME280;59781;52.090;5.030;2023-04-26T03:11:15;101904.13;;;1.85;100.00
71907;BME280;59781;52.090;5.030;2023-04-26T03:13:40;101908.69;;;1.83;100.00
71907;BME280;59781;52.090;5.030;2023-04-26T03:16:07;101911.25;;;1.84;100.00
71907;BME280;59781;52.090;5.030;2023-04-26T03:18:33;101905.09;;;1.84;100.00
71907;BME280;59781;52.090;5.030;2023-04-26T03:20:59;101904.22;;;1.83;100.00
71907;BME280;59781;52.090;5.030;2023-04-26T03:23:25;101909.09;;;1.91;100.00
71907;BME280;59781;52.090;5.030;2023-04-26T03:25:52;101907.50;;;1.88;100.00
71907;BME280;59781;52.090;5.030;2023-04-26T03:28:18;101902.34;;;2.15;100.00
71907;BME280;59781;52.090;5.030;2023-04-26T03:30:44;101899.41;;;2.20;100.00
71907;BME280;59781;52.090;5.030;2023-04-26T03:33:11;101900.78;;;2.27;100.00
71907;BME280;59781;52.090;5.030;2023-04-26T03:35:37;101904.84;;;2.33;100.00
71907;BME280;59781;52.090;5.030;2023-04-26T03:38:03;101903.44;;;2.41;100.00
71907;BME280;59781;52.090;5.030;2023-04-26T03:40:30;101901.63;;;2.27;100.00
71907;BME280;59781;52.090;5.030;2023-04-26T03:42:56;101899.97;;;2.11;100.00
71907;BME280;59781;52.090;5.030;2023-04-26T03:45:21;101903.00;;;2.49;100.00
71907;BME280;59781;52.090;5.030;2023-04-26T03:47:47;101897.88;;;2.60;100.00
71907;BME280;59781;52.090;5.030;2023-04-26T03:50:16;101893.00;;;2.38;100.00
71907;BME280;59781;52.090;5.030;2023-04-26T03:52:42;101901.94;;;2.51;100.00
71907;BME280;59781;52.090;5.030;2023-04-26T03:55:09;101895.88;;;2.64;100.00
71907;BME280;59781;52.090;5.030;2023-04-26T03:57:36;101899.72;;;2.29;100.00
71907;BME280;59781;52.090;5.030;2023-04-26T04:00:04;101899.53;;;2.33;100.00
71907;BME280;59781;52.090;5.030;2023-04-26T04:02:41;101901.44;;;2.45;100.00
71907;BME280;59781;52.090;5.030;2023-04-26T04:05:10;101891.00;;;2.42;100.00
71907;BME280;59781;52.090;5.030;2023-04-26T04:07:36;101889.34;;;2.11;100.00
71907;BME280;59781;52.090;5.030;2023-04-26T04:10:02;101893.72;;;1.96;100.00
71907;BME280;59781;52.090;5.030;2023-04-26T04:12:28;101898.13;;;1.97;100.00
71907;BME280;59781;52.090;5.030;2023-04-26T04:14:54;101899.03;;;1.96;100.00
71907;BME280;59781;52.090;5.030;2023-04-26T04:17:21;101887.75;;;1.92;100.00
71907;BME280;59781;52.090;5.030;2023-04-26T04:19:46;101891.59;;;2.03;100.00
71907;BME280;59781;52.090;5.030;2023-04-26T04:22:12;101891.59;;;2.03;100.00
71907;BME280;59781;52.090;5.030;2023-04-26T04:24:38;101895.28;;;2.00;100.00
71907;BME280;59781;52.090;5.030;2023-04-26T04:27:06;101887.81;;;2.07;100.00
71907;BME280;59781;52.090;5.030;2023-04-26T04:29:32;101899.66;;;2.01;100.00
71907;BME280;59781;52.090;5.030;2023-04-26T04:31:59;101901.66;;;1.97;100.00
71907;BME280;59781;52.090;5.030;2023-04-26T04:34:25;101891.56;;;2.33;100.00
71907;BME280;59781;52.090;5.030;2023-04-26T04:36:51;101905.84;;;2.16;100.00
71907;BME280;59781;52.090;5.030;2023-04-26T04:39:16;101902.34;;;2.15;100.00
71907;BME280;59781;52.090;5.030;2023-04-26T04:41:44;101902.06;;;2.20;100.00
71907;BME280;59781;52.090;5.030;2023-04-26T04:44:13;101904.22;;;2.13;100.00
71907;BME280;59781;52.090;5.030;2023-04-26T04:46:44;101911.56;;;2.24;100.00
71907;BME280;59781;52.090;5.030;2023-04-26T04:49:10;101913.22;;;2.26;100.00
71907;BME280;59781;52.090;5.030;2023-04-26T04:51:37;101911.22;;;2.30;100.00
71907;BME280;59781;52.090;5.030;2023-04-26T04:54:15;101909.31;;;2.32;100.00
71907;BME280;59781;52.090;5.030;2023-04-26T04:56:44;101908.50;;;2.60;100.00
71907;BME280;59781;52.090;5.030;2023-04-26T04:59:12;101915.47;;;2.77;100.00
71907;BME280;59781;52.090;5.030;2023-04-26T05:01:38;101914.03;;;2.85;100.00
71907;BME280;59781;52.090;5.030;2023-04-26T05:04:07;101914.56;;;3.19;100.00
71907;BME280;59781;52.090;5.030;2023-04-26T05:06:33;101911.84;;;3.48;100.00
71907;BME280;59781;52.090;5.030;2023-04-26T05:09:00;101897.72;;;4.26;100.00
71907;BME280;59781;52.090;5.030;2023-04-26T05:11:26;101901.78;;;4.96;100.00
71907;BME280;59781;52.090;5.030;2023-04-26T05:13:52;101900.44;;;5.27;100.00
71907;BME280;59781;52.090;5.030;2023-04-26T05:16:18;101890.16;;;5.33;100.00
71907;BME280;59781;52.090;5.030;2023-04-26T05:18:43;101891.81;;;5.10;100.00
71907;BME280;59781;52.090;5.030;2023-04-26T05:21:09;101900.03;;;5.57;100.00
71907;BME280;59781;52.090;5.030;2023-04-26T05:23:35;101901.13;;;5.05;100.00
71907;BME280;59781;52.090;5.030;2023-04-26T05:26:03;101895.59;;;5.68;100.00
71907;BME280;59781;52.090;5.030;2023-04-26T05:29:07;101901.03;;;5.67;100.00
71907;BME280;59781;52.090;5.030;2023-04-26T05:31:57;101906.81;;;5.37;100.00
71907;BME280;59781;52.090;5.030;2023-04-26T05:34:42;101894.97;;;5.28;100.00
71907;BME280;59781;52.090;5.030;2023-04-26T05:37:11;101902.66;;;5.93;100.00
71907;BME280;59781;52.090;5.030;2023-04-26T05:39:37;101906.97;;;6.42;100.00
71907;BME280;59781;52.090;5.030;2023-04-26T05:42:03;101895.69;;;7.39;100.00
71907;BME280;59781;52.090;5.030;2023-04-26T05:44:29;101900.53;;;7.45;100.00
71907;BME280;59781;52.090;5.030;2023-04-26T05:46:55;101894.63;;;7.08;100.00
71907;BME280;59781;52.090;5.030;2023-04-26T05:49:21;101900.13;;;7.61;100.00
71907;BME280;59781;52.090;5.030;2023-04-26T05:51:47;101892.56;;;8.82;100.00
71907;BME280;59781;52.090;5.030;2023-04-26T05:54:12;101900.59;;;9.03;100.00
71907;BME280;59781;52.090;5.030;2023-04-26T05:56:38;101904.13;;;7.78;100.00
71907;BME280;59781;52.090;5.030;2023-04-26T05:59:04;101896.25;;;8.18;100.00
71907;BME280;59781;52.090;5.030;2023-04-26T06:01:31;101898.06;;;7.54;100.00
71907;BME280;59781;52.090;5.030;2023-04-26T06:03:57;101891.72;;;7.55;100.00
71907;BME280;59781;52.090;5.030;2023-04-26T06:06:26;101899.66;;;7.45;100.00
71907;BME280;59781;52.090;5.030;2023-04-26T06:08:52;101901.41;;;6.68;100.00
71907;BME280;59781;52.090;5.030;2023-04-26T06:11:18;101894.97;;;7.15;100.00
71907;BME280;59781;52.090;5.030;2023-04-26T06:13:44;101909.94;;;6.95;100.00
71907;BME280;59781;52.090;5.030;2023-04-26T06:16:10;101904.34;;;7.21;100.00
71907;BME280;59781;52.090;5.030;2023-04-26T06:18:35;101909.81;;;7.08;100.00
71907;BME280;59781;52.090;5.030;2023-04-26T06:21:01;101914.56;;;6.82;100.00
71907;BME280;59781;52.090;5.030;2023-04-26T06:23:27;101911.88;;;7.49;100.00
71907;BME280;59781;52.090;5.030;2023-04-26T06:25:53;101914.16;;;7.54;100.00
71907;BME280;59781;52.090;5.030;2023-04-26T06:28:19;101913.97;;;7.23;100.00
71907;BME280;59781;52.090;5.030;2023-04-26T06:30:45;101914.56;;;7.04;100.00
71907;BME280;59781;52.090;5.030;2023-04-26T06:33:11;101925.75;;;7.43;100.00
71907;BME280;59781;52.090;5.030;2023-04-26T06:35:39;101922.91;;;7.56;100.00
71907;BME280;59781;52.090;5.030;2023-04-26T06:38:06;101923.66;;;7.46;100.00
71907;BME280;59781;52.090;5.030;2023-04-26T06:40:32;101930.38;;;7.07;100.00
71907;BME280;59781;52.090;5.030;2023-04-26T06:43:01;101933.19;;;7.06;100.00
71907;BME280;59781;52.090;5.030;2023-04-26T06:45:46;101930.75;;;7.25;100.00
71907;BME280;59781;52.090;5.030;2023-04-26T06:48:12;101928.94;;;7.48;100.00
71907;BME280;59781;52.090;5.030;2023-04-26T06:50:38;101931.13;;;7.86;100.00
71907;BME280;59781;52.090;5.030;2023-04-26T06:53:07;101928.31;;;7.33;100.00
71907;BME280;59781;52.090;5.030;2023-04-26T06:55:32;101936.22;;;7.46;100.00
71907;BME280;59781;52.090;5.030;2023-04-26T06:57:59;101926.69;;;7.64;100.00
71907;BME280;59781;52.090;5.030;2023-04-26T07:00:25;101920.78;;;7.82;100.00
71907;BME280;59781;52.090;5.030;2023-04-26T07:02:50;101918.25;;;8.33;100.00
71907;BME280;59781;52.090;5.030;2023-04-26T07:05:16;101915.56;;;8.33;100.00
71907;BME280;59781;52.090;5.030;2023-04-26T07:07:42;101922.84;;;7.89;100.00
71907;BME280;59781;52.090;5.030;2023-04-26T07:10:08;101923.31;;;8.26;100.00
71907;BME280;59781;52.090;5.030;2023-04-26T07:12:34;101925.44;;;8.12;100.00
71907;BME280;59781;52.090;5.030;2023-04-26T07:14:59;101922.22;;;7.97;100.00
71907;BME280;59781;52.090;5.030;2023-04-26T07:17:26;101921.56;;;8.57;100.00
71907;BME280;59781;52.090;5.030;2023-04-26T07:19:52;101919.13;;;8.54;100.00
71907;BME280;59781;52.090;5.030;2023-04-26T07:22:17;101916.56;;;9.04;100.00
71907;BME280;59781;52.090;5.030;2023-04-26T07:24:43;101907.31;;;9.97;100.00
71907;BME280;59781;52.090;5.030;2023-04-26T07:27:09;101923.31;;;9.98;100.00
71907;BME280;59781;52.090;5.030;2023-04-26T07:29:35;101911.28;;;10.51;100.00
71907;BME280;59781;52.090;5.030;2023-04-26T07:32:01;101919.66;;;10.09;100.00
71907;BME280;59781;52.090;5.030;2023-04-26T07:34:26;101925.53;;;9.55;100.00
71907;BME280;59781;52.090;5.030;2023-04-26T07:36:52;101917.44;;;9.05;100.00
71907;BME280;59781;52.090;5.030;2023-04-26T07:39:18;101932.03;;;8.81;100.00
71907;BME280;59781;52.090;5.030;2023-04-26T07:41:43;101930.19;;;9.12;100.00
71907;BME280;59781;52.090;5.030;2023-04-26T07:44:09;101920.19;;;9.24;100.00
71907;BME280;59781;52.090;5.030;2023-04-26T07:46:35;101920.94;;;8.96;100.00
71907;BME280;59781;52.090;5.030;2023-04-26T07:49:01;101926.59;;;9.02;100.00
71907;BME280;59781;52.090;5.030;2023-04-26T07:51:27;101928.09;;;9.16;100.00
71907;BME280;59781;52.090;5.030;2023-04-26T07:53:53;101938.34;;;9.01;100.00
71907;BME280;59781;52.090;5.030;2023-04-26T07:56:20;101929.38;;;9.22;100.00
71907;BME280;59781;52.090;5.030;2023-04-26T07:58:48;101932.47;;;9.17;100.00
71907;BME280;59781;52.090;5.030;2023-04-26T08:01:14;101936.44;;;9.23;100.00
71907;BME280;59781;52.090;5.030;2023-04-26T08:03:41;101937.16;;;8.94;100.00
71907;BME280;59781;52.090;5.030;2023-04-26T08:06:07;101937.84;;;8.45;100.00
71907;BME280;59781;52.090;5.030;2023-04-26T08:08:33;101937.16;;;8.31;100.00
71907;BME280;59781;52.090;5.030;2023-04-26T08:11:07;101934.59;;;8.41;100.00
71907;BME280;59781;52.090;5.030;2023-04-26T08:13:34;101934.47;;;8.31;100.00
71907;BME280;59781;52.090;5.030;2023-04-26T08:16:00;101933.75;;;8.41;100.00
71907;BME280;59781;52.090;5.030;2023-04-26T08:18:26;101935.50;;;8.51;100.00
71907;BME280;59781;52.090;5.030;2023-04-26T08:20:51;101932.31;;;8.57;100.00
71907;BME280;59781;52.090;5.030;2023-04-26T08:23:20;101928.78;;;8.57;100.00
71907;BME280;59781;52.090;5.030;2023-04-26T08:25:47;101926.41;;;8.63;100.00
71907;BME280;59781;52.090;5.030;2023-04-26T08:28:14;101938.63;;;8.98;100.00
71907;BME280;59781;52.090;5.030;2023-04-26T08:30:40;101938.28;;;9.22;100.00
71907;BME280;59781;52.090;5.030;2023-04-26T08:33:08;101938.34;;;9.41;100.00
71907;BME280;59781;52.090;5.030;2023-04-26T08:35:34;101940.44;;;9.28;100.00
71907;BME280;59781;52.090;5.030;2023-04-26T08:38:00;101946.94;;;9.66;100.00
71907;BME280;59781;52.090;5.030;2023-04-26T08:40:26;101939.66;;;10.36;100.00
71907;BME280;59781;52.090;5.030;2023-04-26T08:42:52;101943.59;;;10.31;100.00
71907;BME280;59781;52.090;5.030;2023-04-26T08:45:20;101933.69;;;10.32;100.00
71907;BME280;59781;52.090;5.030;2023-04-26T08:47:49;101932.34;;;11.49;97.41
71907;BME280;59781;52.090;5.030;2023-04-26T08:50:22;101928.53;;;11.52;94.77
71907;BME280;59781;52.090;5.030;2023-04-26T08:52:49;101934.19;;;10.84;100.00
71907;BME280;59781;52.090;5.030;2023-04-26T08:55:18;101925.25;;;10.83;100.00
71907;BME280;59781;52.090;5.030;2023-04-26T08:57:48;101927.28;;;10.72;99.23
71907;BME280;59781;52.090;5.030;2023-04-26T09:00:16;101930.56;;;10.56;94.96
71907;BME280;59781;52.090;5.030;2023-04-26T09:02:48;101930.13;;;10.41;96.47
71907;BME280;59781;52.090;5.030;2023-04-26T09:05:16;101925.41;;;10.82;97.86
71907;BME280;59781;52.090;5.030;2023-04-26T09:07:44;101924.69;;;11.17;89.21
71907;BME280;59781;52.090;5.030;2023-04-26T09:10:13;101928.25;;;11.17;85.72
71907;BME280;59781;52.090;5.030;2023-04-26T09:12:44;101929.56;;;11.41;86.73
71907;BME280;59781;52.090;5.030;2023-04-26T09:15:10;101929.88;;;10.91;81.43
71907;BME280;59781;52.090;5.030;2023-04-26T09:17:37;101928.69;;;10.66;83.94
71907;BME280;59781;52.090;5.030;2023-04-26T09:22:43;101930.09;;;9.64;96.51
71907;BME280;59781;52.090;5.030;2023-04-26T09:25:11;101933.88;;;9.61;95.80
71907;BME280;59781;52.090;5.030;2023-04-26T09:27:40;101934.47;;;9.55;97.06
71907;BME280;59781;52.090;5.030;2023-04-26T09:30:15;101942.06;;;9.10;100.00
71907;BME280;59781;52.090;5.030;2023-04-26T09:32:54;101944.00;;;8.98;100.00
71907;BME280;59781;52.090;5.030;2023-04-26T09:35:34;101941.13;;;8.90;100.00
71907;BME280;59781;52.090;5.030;2023-04-26T09:38:03;101945.00;;;8.76;100.00
71907;BME280;59781;52.090;5.030;2023-04-26T09:40:46;101945.22;;;8.31;100.00
71907;BME280;59781;52.090;5.030;2023-04-26T09:43:20;101943.38;;;8.11;100.00
71907;BME280;59781;52.090;5.030;2023-04-26T09:45:50;101947.06;;;8.31;100.00
71907;BME280;59781;52.090;5.030;2023-04-26T09:48:28;101950.44;;;8.33;100.00
71907;BME280;59781;52.090;5.030;2023-04-26T09:53:33;101947.88;;;8.11;100.00
71907;BME280;59781;52.090;5.030;2023-04-26T09:58:33;101937.94;;;8.22;100.00
71907;BME280;59781;52.090;5.030;2023-04-26T10:01:02;101944.09;;;8.34;100.00
71907;BME280;59781;52.090;5.030;2023-04-26T10:03:29;101941.41;;;8.66;100.00
71907;BME280;59781;52.090;5.030;2023-04-26T10:05:57;101945.66;;;8.48;100.00
71907;BME280;59781;52.090;5.030;2023-04-26T10:08:23;101941.56;;;8.32;100.00
71907;BME280;59781;52.090;5.030;2023-04-26T10:10:49;101941.59;;;8.53;100.00
71907;BME280;59781;52.090;5.030;2023-04-26T10:13:17;101945.13;;;8.54;100.00
71907;BME280;59781;52.090;5.030;2023-04-26T10:15:43;101943.06;;;8.57;100.00
71907;BME280;59781;52.090;5.030;2023-04-26T10:18:10;101938.41;;;8.59;100.00
71907;BME280;59781;52.090;5.030;2023-04-26T10:20:40;101941.34;;;8.56;100.00
71907;BME280;59781;52.090;5.030;2023-04-26T10:23:18;101943.13;;;8.46;100.00
71907;BME280;59781;52.090;5.030;2023-04-26T10:25:50;101945.78;;;8.88;100.00
71907;BME280;59781;52.090;5.030;2023-04-26T10:28:17;101946.13;;;9.04;100.00
71907;BME280;59781;52.090;5.030;2023-04-26T10:31:03;101935.31;;;9.56;100.00
71907;BME280;59781;52.090;5.030;2023-04-26T10:33:30;101942.47;;;9.36;100.00
71907;BME280;59781;52.090;5.030;2023-04-26T10:36:11;101930.06;;;9.54;100.00
71907;BME280;59781;52.090;5.030;2023-04-26T10:39:19;101927.13;;;9.67;100.00
71907;BME280;59781;52.090;5.030;2023-04-26T10:41:49;101933.81;;;10.11;100.00
71907;BME280;59781;52.090;5.030;2023-04-26T10:44:40;101929.00;;;9.86;100.00
71907;BME280;59781;52.090;5.030;2023-04-26T10:50:04;101930.84;;;9.85;99.55
71907;BME280;59781;52.090;5.030;2023-04-26T10:55:41;101930.72;;;10.45;97.02
71907;BME280;59781;52.090;5.030;2023-04-26T11:03:36;101927.72;;;10.57;99.18
71907;BME280;59781;52.090;5.030;2023-04-26T11:06:06;101920.03;;;10.82;97.27
71907;BME280;59781;52.090;5.030;2023-04-26T11:08:34;101918.44;;;10.79;100.00
71907;BME280;59781;52.090;5.030;2023-04-26T11:13:30;101908.44;;;11.36;90.42
71907;BME280;59781;52.090;5.030;2023-04-26T11:16:01;101902.13;;;11.45;89.08
71907;BME280;59781;52.090;5.030;2023-04-26T11:18:29;101906.09;;;11.51;90.58
71907;BME280;59781;52.090;5.030;2023-04-26T11:20:57;101906.03;;;11.33;91.20
71907;BME280;59781;52.090;5.030;2023-04-26T11:23:24;101901.13;;;11.46;89.31
71907;BME280;59781;52.090;5.030;2023-04-26T11:25:51;101894.94;;;11.09;91.03
71907;BME280;59781;52.090;5.030;2023-04-26T11:28:19;101907.75;;;10.97;93.36
71907;BME280;59781;52.090;5.030;2023-04-26T11:30:50;101900.53;;;10.88;89.23
71907;BME280;59781;52.090;5.030;2023-04-26T11:33:19;101909.84;;;10.66;93.90
71907;BME280;59781;52.090;5.030;2023-04-26T11:35:52;101898.28;;;10.93;89.62
71907;BME280;59781;52.090;5.030;2023-04-26T11:38:27;101901.34;;;10.51;88.22
71907;BME280;59781;52.090;5.030;2023-04-26T11:40:59;101904.22;;;10.30;90.88
71907;BME280;59781;52.090;5.030;2023-04-26T11:43:37;101894.69;;;10.55;95.83
71907;BME280;59781;52.090;5.030;2023-04-26T11:46:05;101900.97;;;10.93;98.39
71907;BME280;59781;52.090;5.030;2023-04-26T11:48:36;101904.88;;;11.36;87.42
71907;BME280;59781;52.090;5.030;2023-04-26T11:51:04;101902.31;;;11.07;89.84
71907;BME280;59781;52.090;5.030;2023-04-26T11:53:40;101898.84;;;10.87;86.82
71907;BME280;59781;52.090;5.030;2023-04-26T11:56:17;101902.06;;;11.00;90.54
71907;BME280;59781;52.090;5.030;2023-04-26T11:58:51;101910.19;;;10.44;89.79
71907;BME280;59781;52.090;5.030;2023-04-26T12:01:25;101908.78;;;10.86;87.44
71907;BME280;59781;52.090;5.030;2023-04-26T12:03:54;101896.44;;;12.12;88.00
71907;BME280;59781;52.090;5.030;2023-04-26T12:06:40;101892.00;;;11.75;80.56
71907;BME280;59781;52.090;5.030;2023-04-26T12:09:07;101900.06;;;11.57;86.68
71907;BME280;59781;52.090;5.030;2023-04-26T12:11:35;101902.66;;;10.94;80.41
71907;BME280;59781;52.090;5.030;2023-04-26T12:14:02;101900.31;;;11.64;83.22
71907;BME280;59781;52.090;5.030;2023-04-26T12:16:28;101893.75;;;11.66;79.11
71907;BME280;59781;52.090;5.030;2023-04-26T12:18:54;101896.31;;;11.23;75.26
71907;BME280;59781;52.090;5.030;2023-04-26T12:21:24;101899.41;;;10.90;81.67
71907;BME280;59781;52.090;5.030;2023-04-26T12:23:50;101897.84;;;11.80;75.76
71907;BME280;59781;52.090;5.030;2023-04-26T12:26:16;101903.06;;;11.54;79.38
71907;BME280;59781;52.090;5.030;2023-04-26T12:28:42;101904.97;;;11.44;83.34
71907;BME280;59781;52.090;5.030;2023-04-26T12:31:08;101900.91;;;11.30;84.81
71907;BME280;59781;52.090;5.030;2023-04-26T12:33:35;101909.63;;;11.52;82.96
71907;BME280;59781;52.090;5.030;2023-04-26T12:36:11;101907.72;;;11.34;81.17
71907;BME280;59781;52.090;5.030;2023-04-26T12:38:38;101909.81;;;11.13;83.24
71907;BME280;59781;52.090;5.030;2023-04-26T12:41:04;101907.28;;;11.11;79.65
71907;BME280;59781;52.090;5.030;2023-04-26T12:43:30;101900.97;;;11.48;83.45
71907;BME280;59781;52.090;5.030;2023-04-26T12:45:56;101898.22;;;12.03;81.37
71907;BME280;59781;52.090;5.030;2023-04-26T12:48:22;101897.97;;;11.96;78.29
71907;BME280;59781;52.090;5.030;2023-04-26T12:50:47;101900.06;;;12.20;77.07
71907;BME280;59781;52.090;5.030;2023-04-26T12:53:13;101894.31;;;13.77;74.83
71907;BME280;59781;52.090;5.030;2023-04-26T12:55:39;101889.44;;;13.97;68.63
71907;BME280;59781;52.090;5.030;2023-04-26T12:58:05;101894.50;;;14.25;70.65
71907;BME280;59781;52.090;5.030;2023-04-26T13:00:31;101898.66;;;13.54;69.08
71907;BME280;59781;52.090;5.030;2023-04-26T13:02:56;101892.84;;;12.99;64.17
71907;BME280;59781;52.090;5.030;2023-04-26T13:05:22;101893.66;;;11.58;66.31
71907;BME280;59781;52.090;5.030;2023-04-26T13:07:49;101897.03;;;11.42;69.08
71907;BME280;59781;52.090;5.030;2023-04-26T13:10:16;101897.00;;;11.52;76.84
71907;BME280;59781;52.090;5.030;2023-04-26T13:12:42;101895.66;;;11.84;77.46
71907;BME280;59781;52.090;5.030;2023-04-26T13:15:08;101898.53;;;11.82;79.06
71907;BME280;59781;52.090;5.030;2023-04-26T13:17:36;101894.78;;;11.38;73.81